sensor_id;sensor_type;location;lat;lon;timestamp;pressure;altitude;pressure_sealevel;temperature;humidity
63447;BME280;49577;49.872;6.190;2023-02-18T00:02:09;100404.52;;;9.96;84.96
63447;BME280;49577;49.872;6.190;2023-02-18T00:04:34;100397.56;;;9.95;85.02
63447;BME280;49577;49.872;6.190;2023-02-18T00:06:59;100402.64;;;9.95;85.07
63447;BME280;49577;49.872;6.190;2023-02-18T00:09:25;100406.85;;;9.94;84.96
63447;BME280;49577;49.872;6.190;2023-02-18T00:11:50;100405.48;;;9.94;85.01
63447;BME280;49577;49.872;6.190;2023-02-18T00:14:16;100403.42;;;9.93;84.98
63447;BME280;49577;49.872;6.190;2023-02-18T00:16:42;100403.80;;;9.93;84.97
63447;BME280;49577;49.872;6.190;2023-02-18T00:19:09;100406.30;;;9.91;85.08
63447;BME280;49577;49.872;6.190;2023-02-18T00:21:35;100409.57;;;9.88;85.16
63447;BME280;49577;49.872;6.190;2023-02-18T00:24:01;100413.67;;;9.86;85.31
63447;BME280;49577;49.872;6.190;2023-02-18T00:26:26;100410.39;;;9.85;85.44
63447;BME280;49577;49.872;6.190;2023-02-18T00:28:52;100412.15;;;9.85;85.52
63447;BME280;49577;49.872;6.190;2023-02-18T00:31:19;100412.11;;;9.82;85.63
63447;BME280;49577;49.872;6.190;2023-02-18T00:33:45;100414.95;;;9.81;85.85
63447;BME280;49577;49.872;6.190;2023-02-18T00:36:11;100415.61;;;9.79;86.09
63447;BME280;49577;49.872;6.190;2023-02-18T00:38:37;100413.22;;;9.77;86.24
63447;BME280;49577;49.872;6.190;2023-02-18T00:41:03;100410.45;;;9.77;86.45
63447;BME280;49577;49.872;6.190;2023-02-18T00:43:28;100412.20;;;9.73;86.58
63447;BME280;49577;49.872;6.190;2023-02-18T00:45:54;100412.34;;;9.70;86.81
63447;BME280;49577;49.872;6.190;2023-02-18T00:48:19;100416.71;;;9.66;87.10
63447;BME280;49577;49.872;6.190;2023-02-18T00:50:45;100418.19;;;9.64;87.33
63447;BME280;49577;49.872;6.190;2023-02-18T00:53:10;100419.13;;;9.62;87.48
63447;BME280;49577;49.872;6.190;2023-02-18T00:55:42;100425.48;;;9.61;87.50
63447;BME280;49577;49.872;6.190;2023-02-18T00:58:08;100419.52;;;9.58;87.65
63447;BME280;49577;49.872;6.190;2023-02-18T01:00:33;100419.52;;;9.55;87.90
63447;BME280;49577;49.872;6.190;2023-02-18T01:02:58;100422.05;;;9.52;88.06
63447;BME280;49577;49.872;6.190;2023-02-18T01:05:24;100420.58;;;9.50;88.14
63447;BME280;49577;49.872;6.190;2023-02-18T01:07:49;100416.81;;;9.49;88.18
63447;BME280;49577;49.872;6.190;2023-02-18T01:10:14;100415.16;;;9.47;88.17
63447;BME280;49577;49.872;6.190;2023-02-18T01:12:39;100408.33;;;9.47;88.25
63447;BME280;49577;49.872;6.190;2023-02-18T01:15:05;100394.66;;;9.49;88.31
63447;BME280;49577;49.872;6.190;2023-02-18T01:17:31;100383.70;;;9.48;88.27
63447;BME280;49577;49.872;6.190;2023-02-18T01:19:56;100387.88;;;9.48;88.23
63447;BME280;49577;49.872;6.190;2023-02-18T01:22:22;100381.98;;;9.48;88.31
63447;BME280;49577;49.872;6.190;2023-02-18T01:24:48;100383.41;;;9.47;88.34
63447;BME280;49577;49.872;6.190;2023-02-18T01:27:13;100380.10;;;9.47;88.30
63447;BME280;49577;49.872;6.190;2023-02-18T01:29:38;100376.80;;;9.47;88.25
63447;BME280;49577;49.872;6.190;2023-02-18T01:32:03;100373.48;;;9.47;88.39
63447;BME280;49577;49.872;6.190;2023-02-18T01:34:28;100371.25;;;9.46;88.37
63447;BME280;49577;49.872;6.190;2023-02-18T01:36:54;100366.09;;;9.45;88.33
63447;BME280;49577;49.872;6.190;2023-02-18T01:39:20;100365.77;;;9.44;88.27
63447;BME280;49577;49.872;6.190;2023-02-18T01:41:45;100361.54;;;9.45;88.31
63447;BME280;49577;49.872;6.190;2023-02-18T01:44:11;100353.36;;;9.44;88.26
63447;BME280;49577;49.872;6.190;2023-02-18T01:46:37;100343.88;;;9.46;88.23
63447;BME280;49577;49.872;6.190;2023-02-18T01:49:02;100339.54;;;9.45;88.14
63447;BME280;49577;49.872;6.190;2023-02-18T01:51:29;100338.36;;;9.44;88.02
63447;BME280;49577;49.872;6.190;2023-02-18T01:56:26;100346.94;;;9.44;87.85
63447;BME280;49577;49.872;6.190;2023-02-18T01:58:53;100347.50;;;9.43;87.91
63447;BME280;49577;49.872;6.190;2023-02-18T02:01:19;100349.96;;;9.43;87.78
63447;BME280;49577;49.872;6.190;2023-02-18T02:03:44;100346.48;;;9.43;87.77
63447;BME280;49577;49.872;6.190;2023-02-18T02:06:14;100347.70;;;9.43;87.69
63447;BME280;49577;49.872;6.190;2023-02-18T02:08:40;100341.53;;;9.44;87.55
63447;BME280;49577;49.872;6.190;2023-02-18T02:13:47;100329.67;;;9.44;87.34
63447;BME280;49577;49.872;6.190;2023-02-18T02:34:36;100298.62;;;9.44;86.91
63447;BME280;49577;49.872;6.190;2023-02-18T02:42:18;100312.20;;;9.41;87.03
63447;BME280;49577;49.872;6.190;2023-02-18T02:47:13;100307.59;;;9.43;86.92
63447;BME280;49577;49.872;6.190;2023-02-18T02:50:00;100305.21;;;9.41;86.94
63447;BME280;49577;49.872;6.190;2023-02-18T02:52:30;100300.44;;;9.39;86.95
63447;BME280;49577;49.872;6.190;2023-02-18T02:54:56;100302.93;;;9.38;87.07
63447;BME280;49577;49.872;6.190;2023-02-18T02:59:47;100298.81;;;9.36;87.05
63447;BME280;49577;49.872;6.190;2023-02-18T03:05:18;100304.19;;;9.36;87.03
63447;BME280;49577;49.872;6.190;2023-02-18T03:07:59;100299.17;;;9.36;87.11
63447;BME280;49577;49.872;6.190;2023-02-18T03:18:06;100289.90;;;9.33;86.97
63447;BME280;49577;49.872;6.190;2023-02-18T03:20:37;100292.90;;;9.32;86.87
63447;BME280;49577;49.872;6.190;2023-02-18T03:23:05;100289.84;;;9.30;86.84
63447;BME280;49577;49.872;6.190;2023-02-18T03:25:31;100284.42;;;9.31;86.82
63447;BME280;49577;49.872;6.190;2023-02-18T03:28:01;100280.04;;;9.31;86.73
63447;BME280;49577;49.872;6.190;2023-02-18T03:30:32;100268.74;;;9.30;86.70
63447;BME280;49577;49.872;6.190;2023-02-18T03:32:59;100254.45;;;9.30;86.70
63447;BME280;49577;49.872;6.190;2023-02-18T03:35:27;100252.56;;;9.30;86.57
63447;BME280;49577;49.872;6.190;2023-02-18T03:38:03;100252.41;;;9.29;86.57
63447;BME280;49577;49.872;6.190;2023-02-18T03:40:31;100263.77;;;9.28;86.46
63447;BME280;49577;49.872;6.190;2023-02-18T03:42:57;100263.16;;;9.27;86.51
63447;BME280;49577;49.872;6.190;2023-02-18T03:45:22;100268.38;;;9.23;86.60
63447;BME280;49577;49.872;6.190;2023-02-18T03:47:48;100264.82;;;9.21;86.62
63447;BME280;49577;49.872;6.190;2023-02-18T03:50:13;100264.59;;;9.18;86.65
63447;BME280;49577;49.872;6.190;2023-02-18T03:52:38;100266.86;;;9.18;86.70
63447;BME280;49577;49.872;6.190;2023-02-18T03:55:04;100264.77;;;9.19;86.76
63447;BME280;49577;49.872;6.190;2023-02-18T03:57:29;100264.66;;;9.17;86.77
63447;BME280;49577;49.872;6.190;2023-02-18T03:59:54;100263.34;;;9.16;86.75
63447;BME280;49577;49.872;6.190;2023-02-18T04:02:20;100259.16;;;9.16;86.79
63447;BME280;49577;49.872;6.190;2023-02-18T04:04:45;100259.17;;;9.15;86.94
63447;BME280;49577;49.872;6.190;2023-02-18T04:07:10;100259.67;;;9.16;87.04
63447;BME280;49577;49.872;6.190;2023-02-18T04:09:35;100262.30;;;9.15;87.00
63447;BME280;49577;49.872;6.190;2023-02-18T04:12:00;100257.46;;;9.14;87.14
63447;BME280;49577;49.872;6.190;2023-02-18T04:14:26;100253.30;;;9.14;87.22
63447;BME280;49577;49.872;6.190;2023-02-18T04:16:51;100249.34;;;9.13;87.18
63447;BME280;49577;49.872;6.190;2023-02-18T04:19:16;100249.70;;;9.13;87.33
63447;BME280;49577;49.872;6.190;2023-02-18T04:21:41;100242.77;;;9.12;87.30
63447;BME280;49577;49.872;6.190;2023-02-18T04:24:06;100243.19;;;9.10;87.30
63447;BME280;49577;49.872;6.190;2023-02-18T04:26:32;100247.48;;;9.08;87.47
63447;BME280;49577;49.872;6.190;2023-02-18T04:28:57;100249.29;;;9.07;87.49
63447;BME280;49577;49.872;6.190;2023-02-18T04:31:22;100252.13;;;9.05;87.49
63447;BME280;49577;49.872;6.190;2023-02-18T04:33:47;100251.41;;;9.02;87.57
63447;BME280;49577;49.872;6.190;2023-02-18T04:36:13;100251.74;;;9.03;87.45
63447;BME280;49577;49.872;6.190;2023-02-18T04:38:38;100253.17;;;9.02;87.37
63447;BME280;49577;49.872;6.190;2023-02-18T04:41:03;100245.89;;;9.01;87.29
63447;BME280;49577;49.872;6.190;2023-02-18T04:43:28;100251.31;;;9.01;87.21
63447;BME280;49577;49.872;6.190;2023-02-18T04:45:53;100252.59;;;8.99;87.29
63447;BME280;49577;49.872;6.190;2023-02-18T04:48:19;100255.40;;;8.99;87.28
63447;BME280;49577;49.872;6.190;2023-02-18T04:50:44;100259.98;;;8.98;87.24
63447;BME280;49577;49.872;6.190;2023-02-18T04:53:09;100258.98;;;8.97;87.24
63447;BME280;49577;49.872;6.190;2023-02-18T04:55:34;100257.99;;;8.96;87.16
63447;BME280;49577;49.872;6.190;2023-02-18T04:58:00;100260.15;;;8.94;87.10
63447;BME280;49577;49.872;6.190;2023-02-18T05:00:25;100259.52;;;8.93;87.16
63447;BME280;49577;49.872;6.190;2023-02-18T05:02:52;100266.65;;;8.93;87.32
63447;BME280;49577;49.872;6.190;2023-02-18T05:05:17;100266.84;;;8.92;87.27
63447;BME280;49577;49.872;6.190;2023-02-18T05:07:43;100261.81;;;8.92;87.30
63447;BME280;49577;49.872;6.190;2023-02-18T05:10:09;100263.59;;;8.91;87.35
63447;BME280;49577;49.872;6.190;2023-02-18T05:12:35;100258.94;;;8.90;87.46
63447;BME280;49577;49.872;6.190;2023-02-18T05:15:00;100259.92;;;8.88;87.54
63447;BME280;49577;49.872;6.190;2023-02-18T05:17:25;100268.51;;;8.86;87.68
63447;BME280;49577;49.872;6.190;2023-02-18T05:19:50;100266.98;;;8.85;87.77
63447;BME280;49577;49.872;6.190;2023-02-18T05:22:16;100258.55;;;8.83;87.90
63447;BME280;49577;49.872;6.190;2023-02-18T05:24:41;100255.23;;;8.79;88.05
63447;BME280;49577;49.872;6.190;2023-02-18T05:27:06;100247.33;;;8.73;88.15
63447;BME280;49577;49.872;6.190;2023-02-18T05:29:31;100247.52;;;8.69;88.24
63447;BME280;49577;49.872;6.190;2023-02-18T05:31:56;100247.66;;;8.66;88.35
63447;BME280;49577;49.872;6.190;2023-02-18T05:34:22;100245.67;;;8.63;88.34
63447;BME280;49577;49.872;6.190;2023-02-18T05:36:47;100233.92;;;8.61;88.42
63447;BME280;49577;49.872;6.190;2023-02-18T05:39:12;100228.23;;;8.60;88.52
63447;BME280;49577;49.872;6.190;2023-02-18T05:41:37;100220.45;;;8.59;88.34
63447;BME280;49577;49.872;6.190;2023-02-18T05:44:02;100214.96;;;8.57;88.22
63447;BME280;49577;49.872;6.190;2023-02-18T05:46:46;100207.05;;;8.55;88.00
63447;BME280;49577;49.872;6.190;2023-02-18T05:49:12;100203.69;;;8.52;87.89
63447;BME280;49577;49.872;6.190;2023-02-18T05:51:37;100200.52;;;8.49;87.89
63447;BME280;49577;49.872;6.190;2023-02-18T05:54:02;100199.29;;;8.50;87.76
63447;BME280;49577;49.872;6.190;2023-02-18T05:56:28;100195.52;;;8.48;87.40
63447;BME280;49577;49.872;6.190;2023-02-18T05:58:53;100190.34;;;8.47;86.92
63447;BME280;49577;49.872;6.190;2023-02-18T06:01:18;100190.67;;;8.47;86.68
63447;BME280;49577;49.872;6.190;2023-02-18T06:03:43;100190.19;;;8.46;86.65
63447;BME280;49577;49.872;6.190;2023-02-18T06:06:09;100192.77;;;8.47;86.52
63447;BME280;49577;49.872;6.190;2023-02-18T06:08:34;100189.42;;;8.48;86.37
63447;BME280;49577;49.872;6.190;2023-02-18T06:10:59;100188.71;;;8.49;86.39
63447;BME280;49577;49.872;6.190;2023-02-18T06:13:24;100190.11;;;8.49;86.12
63447;BME280;49577;49.872;6.190;2023-02-18T06:15:50;100190.55;;;8.50;85.93
63447;BME280;49577;49.872;6.190;2023-02-18T06:18:15;100188.64;;;8.50;85.96
63447;BME280;49577;49.872;6.190;2023-02-18T06:20:41;100183.26;;;8.50;85.63
63447;BME280;49577;49.872;6.190;2023-02-18T06:23:06;100181.38;;;8.49;85.49
63447;BME280;49577;49.872;6.190;2023-02-18T06:25:31;100186.59;;;8.49;85.48
63447;BME280;49577;49.872;6.190;2023-02-18T06:27:56;100188.84;;;8.49;85.38
63447;BME280;49577;49.872;6.190;2023-02-18T06:30:22;100195.63;;;8.50;85.11
63447;BME280;49577;49.872;6.190;2023-02-18T06:32:47;100195.50;;;8.49;84.98
63447;BME280;49577;49.872;6.190;2023-02-18T06:35:12;100195.35;;;8.48;85.12
63447;BME280;49577;49.872;6.190;2023-02-18T06:37:37;100193.02;;;8.49;85.24
63447;BME280;49577;49.872;6.190;2023-02-18T06:40:02;100197.81;;;8.51;85.09
63447;BME280;49577;49.872;6.190;2023-02-18T06:42:28;100206.20;;;8.51;84.84
63447;BME280;49577;49.872;6.190;2023-02-18T06:44:53;100210.50;;;8.51;84.84
63447;BME280;49577;49.872;6.190;2023-02-18T06:47:18;100207.18;;;8.52;84.73
63447;BME280;49577;49.872;6.190;2023-02-18T06:49:43;100198.79;;;8.53;84.62
63447;BME280;49577;49.872;6.190;2023-02-18T06:52:09;100201.38;;;8.53;84.55
63447;BME280;49577;49.872;6.190;2023-02-18T06:54:34;100204.66;;;8.54;84.46
63447;BME280;49577;49.872;6.190;2023-02-18T06:57:00;100207.84;;;8.53;84.31
63447;BME280;49577;49.872;6.190;2023-02-18T06:59:25;100214.96;;;8.53;84.44
63447;BME280;49577;49.872;6.190;2023-02-18T07:01:50;100211.98;;;8.54;84.33
63447;BME280;49577;49.872;6.190;2023-02-18T07:04:15;100209.85;;;8.55;84.39
63447;BME280;49577;49.872;6.190;2023-02-18T07:06:41;100206.69;;;8.55;84.56
63447;BME280;49577;49.872;6.190;2023-02-18T07:09:06;100209.76;;;8.53;84.81
63447;BME280;49577;49.872;6.190;2023-02-18T07:11:31;100206.98;;;8.53;85.16
63447;BME280;49577;49.872;6.190;2023-02-18T07:13:56;100204.46;;;8.51;85.31
63447;BME280;49577;49.872;6.190;2023-02-18T07:16:22;100206.98;;;8.49;85.83
63447;BME280;49577;49.872;6.190;2023-02-18T07:18:47;100198.22;;;8.46;85.95
63447;BME280;49577;49.872;6.190;2023-02-18T07:21:12;100201.10;;;8.44;86.21
63447;BME280;49577;49.872;6.190;2023-02-18T07:23:37;100191.17;;;8.44;86.14
63447;BME280;49577;49.872;6.190;2023-02-18T07:26:10;100181.13;;;8.43;86.31
63447;BME280;49577;49.872;6.190;2023-02-18T07:28:35;100185.80;;;8.43;86.42
63447;BME280;49577;49.872;6.190;2023-02-18T07:31:01;100192.71;;;8.45;86.67
63447;BME280;49577;49.872;6.190;2023-02-18T07:33:26;100180.17;;;8.45;86.52
63447;BME280;49577;49.872;6.190;2023-02-18T07:35:52;100184.88;;;8.45;86.55
63447;BME280;49577;49.872;6.190;2023-02-18T07:38:17;100181.41;;;8.45;86.66
63447;BME280;49577;49.872;6.190;2023-02-18T07:40:44;100179.66;;;8.45;86.67
63447;BME280;49577;49.872;6.190;2023-02-18T07:43:09;100170.76;;;8.49;86.95
63447;BME280;49577;49.872;6.190;2023-02-18T07:45:36;100164.08;;;8.54;86.83
63447;BME280;49577;49.872;6.190;2023-02-18T07:48:01;100162.01;;;8.57;86.50
63447;BME280;49577;49.872;6.190;2023-02-18T07:50:27;100153.08;;;8.59;86.27
63447;BME280;49577;49.872;6.190;2023-02-18T07:52:52;100147.59;;;8.60;85.94
63447;BME280;49577;49.872;6.190;2023-02-18T07:55:17;100146.33;;;8.61;85.54
63447;BME280;49577;49.872;6.190;2023-02-18T07:57:42;100151.48;;;8.63;85.19
63447;BME280;49577;49.872;6.190;2023-02-18T08:00:24;100157.98;;;8.66;85.18
63447;BME280;49577;49.872;6.190;2023-02-18T08:02:50;100159.77;;;8.68;84.84
63447;BME280;49577;49.872;6.190;2023-02-18T08:05:15;100162.08;;;8.71;84.68
63447;BME280;49577;49.872;6.190;2023-02-18T08:07:40;100166.13;;;8.74;84.61
63447;BME280;49577;49.872;6.190;2023-02-18T08:10:06;100178.96;;;8.75;84.30
63447;BME280;49577;49.872;6.190;2023-02-18T08:12:31;100189.70;;;8.76;83.92
63447;BME280;49577;49.872;6.190;2023-02-18T08:14:56;100196.89;;;8.75;83.77
63447;BME280;49577;49.872;6.190;2023-02-18T08:17:21;100195.70;;;8.74;83.86
63447;BME280;49577;49.872;6.190;2023-02-18T08:19:46;100199.30;;;8.76;83.83
63447;BME280;49577;49.872;6.190;2023-02-18T08:22:12;100202.55;;;8.77;83.62
63447;BME280;49577;49.872;6.190;2023-02-18T08:24:37;100206.30;;;8.79;83.42
63447;BME280;49577;49.872;6.190;2023-02-18T08:27:02;100217.88;;;8.81;82.66
63447;BME280;49577;49.872;6.190;2023-02-18T08:29:28;100219.12;;;8.84;81.36
63447;BME280;49577;49.872;6.190;2023-02-18T08:31:53;100231.20;;;8.87;80.49
63447;BME280;49577;49.872;6.190;2023-02-18T08:34:21;100224.38;;;8.91;79.42
63447;BME280;49577;49.872;6.190;2023-02-18T08:36:46;100219.75;;;8.97;78.73
63447;BME280;49577;49.872;6.190;2023-02-18T08:39:11;100220.47;;;9.04;78.61
63447;BME280;49577;49.872;6.190;2023-02-18T08:41:36;100217.73;;;9.11;77.90
63447;BME280;49577;49.872;6.190;2023-02-18T08:44:01;100219.04;;;9.13;77.47
63447;BME280;49577;49.872;6.190;2023-02-18T08:46:27;100223.45;;;9.15;77.68
63447;BME280;49577;49.872;6.190;2023-02-18T08:48:52;100226.80;;;9.18;77.92
63447;BME280;49577;49.872;6.190;2023-02-18T08:51:18;100225.64;;;9.20;77.73
63447;BME280;49577;49.872;6.190;2023-02-18T08:53:44;100222.67;;;9.21;77.22
63447;BME280;49577;49.872;6.190;2023-02-18T08:56:10;100224.10;;;9.20;77.28
63447;BME280;49577;49.872;6.190;2023-02-18T08:58:37;100227.60;;;9.19;77.47
63447;BME280;49577;49.872;6.190;2023-02-18T09:01:03;100221.23;;;9.21;77.52
63447;BME280;49577;49.872;6.190;2023-02-18T09:03:29;100223.61;;;9.23;77.46
63447;BME280;49577;49.872;6.190;2023-02-18T09:05:54;100225.73;;;9.26;77.83
63447;BME280;49577;49.872;6.190;2023-02-18T09:08:20;100226.33;;;9.28;77.90
63447;BME280;49577;49.872;6.190;2023-02-18T09:10:46;100229.80;;;9.28;78.07
63447;BME280;49577;49.872;6.190;2023-02-18T09:13:11;100234.21;;;9.30;78.01
63447;BME280;49577;49.872;6.190;2023-02-18T09:15:36;100231.80;;;9.38;77.89
63447;BME280;49577;49.872;6.190;2023-02-18T09:18:01;100225.15;;;9.42;77.69
63447;BME280;49577;49.872;6.190;2023-02-18T09:20:27;100230.62;;;9.44;77.52
63447;BME280;49577;49.872;6.190;2023-02-18T09:22:52;100232.33;;;9.48;77.69
63447;BME280;49577;49.872;6.190;2023-02-18T09:25:17;100234.45;;;9.55;77.60
63447;BME280;49577;49.872;6.190;2023-02-18T09:27:43;100231.34;;;9.58;76.97
63447;BME280;49577;49.872;6.190;2023-02-18T09:30:08;100236.71;;;9.58;76.58
63447;BME280;49577;49.872;6.190;2023-02-18T09:32:33;100239.38;;;9.61;76.63
63447;BME280;49577;49.872;6.190;2023-02-18T09:34:58;100239.05;;;9.64;76.71
63447;BME280;49577;49.872;6.190;2023-02-18T09:37:23;100239.15;;;9.66;76.82
63447;BME280;49577;49.872;6.190;2023-02-18T09:39:49;100238.41;;;9.67;76.02
63447;BME280;49577;49.872;6.190;2023-02-18T09:42:15;100244.02;;;9.66;76.27
63447;BME280;49577;49.872;6.190;2023-02-18T09:44:43;100240.14;;;9.67;76.12
63447;BME280;49577;49.872;6.190;2023-02-18T09:49:36;100246.64;;;9.66;75.97
63447;BME280;49577;49.872;6.190;2023-02-18T09:52:14;100250.77;;;9.67;75.93
63447;BME280;49577;49.872;6.190;2023-02-18T09:54:40;100252.34;;;9.67;75.39
63447;BME280;49577;49.872;6.190;2023-02-18T09:57:05;100251.56;;;9.66;75.52
63447;BME280;49577;49.872;6.190;2023-02-18T09:59:39;100241.80;;;9.68;75.67
63447;BME280;49577;49.872;6.190;2023-02-18T10:02:05;100241.77;;;9.70;75.33
63447;BME280;49577;49.872;6.190;2023-02-18T10:04:38;100238.83;;;9.65;74.84
63447;BME280;49577;49.872;6.190;2023-02-18T10:07:04;100248.50;;;9.63;75.19
63447;BME280;49577;49.872;6.190;2023-02-18T10:09:35;100249.70;;;9.64;75.02
63447;BME280;49577;49.872;6.190;2023-02-18T10:12:03;100249.25;;;9.62;75.00
63447;BME280;49577;49.872;6.190;2023-02-18T10:14:32;100250.54;;;9.61;75.23
63447;BME280;49577;49.872;6.190;2023-02-18T10:16:57;100247.66;;;9.62;75.44
63447;BME280;49577;49.872;6.190;2023-02-18T10:19:33;100251.91;;;9.65;75.57
63447;BME280;49577;49.872;6.190;2023-02-18T10:22:01;100248.01;;;9.66;75.36
63447;BME280;49577;49.872;6.190;2023-02-18T10:24:37;100248.94;;;9.69;75.53
63447;BME280;49577;49.872;6.190;2023-02-18T10:27:05;100254.89;;;9.72;75.38
63447;BME280;49577;49.872;6.190;2023-02-18T10:29:30;100248.55;;;9.73;75.34
63447;BME280;49577;49.872;6.190;2023-02-18T10:34:46;100249.91;;;9.74;75.14
63447;BME280;49577;49.872;6.190;2023-02-18T10:37:28;100246.85;;;9.72;75.31
63447;BME280;49577;49.872;6.190;2023-02-18T10:50:24;100242.42;;;9.74;74.69
63447;BME280;49577;49.872;6.190;2023-02-18T10:52:51;100248.58;;;9.72;74.69
63447;BME280;49577;49.872;6.190;2023-02-18T10:55:19;100246.33;;;9.76;74.94
63447;BME280;49577;49.872;6.190;2023-02-18T10:57:58;100239.36;;;9.79;74.85
63447;BME280;49577;49.872;6.190;2023-02-18T11:00:24;100238.86;;;9.82;74.86
63447;BME280;49577;49.872;6.190;2023-02-18T11:05:52;100237.54;;;9.95;74.96
63447;BME280;49577;49.872;6.190;2023-02-18T11:08:23;100237.42;;;10.04;74.92
63447;BME280;49577;49.872;6.190;2023-02-18T11:10:49;100241.39;;;10.08;74.51
63447;BME280;49577;49.872;6.190;2023-02-18T11:13:15;100234.36;;;10.09;74.44
63447;BME280;49577;49.872;6.190;2023-02-18T11:16:35;100234.60;;;10.08;74.28
63447;BME280;49577;49.872;6.190;2023-02-18T11:18:34;100237.40;;;10.11;74.55
63447;BME280;49577;49.872;6.190;2023-02-18T11:21:01;100233.41;;;10.25;74.85
63447;BME280;49577;49.872;6.190;2023-02-18T11:23:27;100238.05;;;10.37;74.70
63447;BME280;49577;49.872;6.190;2023-02-18T11:25:54;100233.03;;;10.43;74.43
63447;BME280;49577;49.872;6.190;2023-02-18T11:30:46;100231.30;;;10.43;73.69
63447;BME280;49577;49.872;6.190;2023-02-18T11:33:14;100229.13;;;10.37;73.79
63447;BME280;49577;49.872;6.190;2023-02-18T11:35:47;100228.11;;;10.30;73.67
63447;BME280;49577;49.872;6.190;2023-02-18T11:38:35;100222.60;;;10.21;73.87
63447;BME280;49577;49.872;6.190;2023-02-18T11:41:01;100216.67;;;10.14;73.93
63447;BME280;49577;49.872;6.190;2023-02-18T11:43:28;100205.65;;;10.08;73.96
63447;BME280;49577;49.872;6.190;2023-02-18T11:46:07;100211.52;;;10.02;74.10
63447;BME280;49577;49.872;6.190;2023-02-18T11:48:33;100205.67;;;9.97;74.34
63447;BME280;49577;49.872;6.190;2023-02-18T11:50:58;100203.98;;;9.93;74.43
63447;BME280;49577;49.872;6.190;2023-02-18T11:55:57;100196.19;;;9.88;74.79
63447;BME280;49577;49.872;6.190;2023-02-18T11:58:23;100194.73;;;9.85;75.12
63447;BME280;49577;49.872;6.190;2023-02-18T12:00:49;100194.15;;;9.83;75.36
63447;BME280;49577;49.872;6.190;2023-02-18T12:05:56;100198.83;;;9.80;75.45
63447;BME280;49577;49.872;6.190;2023-02-18T12:08:33;100200.13;;;9.79;75.47
63447;BME280;49577;49.872;6.190;2023-02-18T12:11:08;100198.30;;;9.77;75.39
63447;BME280;49577;49.872;6.190;2023-02-18T12:13:36;100197.09;;;9.73;75.36
63447;BME280;49577;49.872;6.190;2023-02-18T12:16:09;100196.55;;;9.74;75.61
63447;BME280;49577;49.872;6.190;2023-02-18T12:21:42;100200.51;;;9.85;75.46
63447;BME280;49577;49.872;6.190;2023-02-18T12:25:02;100198.15;;;9.90;75.62
63447;BME280;49577;49.872;6.190;2023-02-18T12:32:22;100187.27;;;9.88;75.43
63447;BME280;49577;49.872;6.190;2023-02-18T12:40:03;100186.55;;;9.85;75.48
63447;BME280;49577;49.872;6.190;2023-02-18T12:57:47;100165.54;;;9.73;76.50
63447;BME280;49577;49.872;6.190;2023-02-18T13:07:52;100155.61;;;9.58;76.55
63447;BME280;49577;49.872;6.190;2023-02-18T13:13:10;100149.94;;;9.53;76.86
63447;BME280;49577;49.872;6.190;2023-02-18T13:15:40;100147.84;;;9.54;76.92
63447;BME280;49577;49.872;6.190;2023-02-18T13:23:31;100159.02;;;9.60;77.30
63447;BME280;49577;49.872;6.190;2023-02-18T13:25:59;100158.09;;;9.61;77.07
63447;BME280;49577;49.872;6.190;2023-02-18T13:28:36;100161.69;;;9.59;77.16
63447;BME280;49577;49.872;6.190;2023-02-18T13:33:57;100149.26;;;9.60;77.45
63447;BME280;49577;49.872;6.190;2023-02-18T13:39:09;100145.57;;;9.67;77.31
63447;BME280;49577;49.872;6.190;2023-02-18T13:41:40;100136.63;;;9.69;77.15
63447;BME280;49577;49.872;6.190;2023-02-18T13:44:07;100138.45;;;9.67;77.16
63447;BME280;49577;49.872;6.190;2023-02-18T13:46:35;100134.81;;;9.66;77.20
63447;BME280;49577;49.872;6.190;2023-02-18T13:49:11;100136.10;;;9.66;77.23
63447;BME280;49577;49.872;6.190;2023-02-18T13:51:46;100131.59;;;9.65;77.17
63447;BME280;49577;49.872;6.190;2023-02-18T14:09:43;100123.89;;;9.58;77.38
63447;BME280;49577;49.872;6.190;2023-02-18T14:14:49;100130.34;;;9.58;77.49
63447;BME280;49577;49.872;6.190;2023-02-18T14:19:52;100144.51;;;9.57;77.57
63447;BME280;49577;49.872;6.190;2023-02-18T14:22:25;100142.05;;;9.58;77.58
63447;BME280;49577;49.872;6.190;2023-02-18T14:24:55;100138.70;;;9.55;77.62
63447;BME280;49577;49.872;6.190;2023-02-18T14:27:21;100140.96;;;9.55;77.83
63447;BME280;49577;49.872;6.190;2023-02-18T14:29:47;100136.01;;;9.53;77.75
63447;BME280;49577;49.872;6.190;2023-02-18T14:32:15;100135.40;;;9.51;77.77
63447;BME280;49577;49.872;6.190;2023-02-18T14:37:39;100139.82;;;9.53;77.98
63447;BME280;49577;49.872;6.190;2023-02-18T14:42:38;100132.56;;;9.56;78.02
63447;BME280;49577;49.872;6.190;2023-02-18T14:50:18;100138.91;;;9.54;78.09
63447;BME280;49577;49.872;6.190;2023-02-18T14:52:44;100139.50;;;9.53;78.25
63447;BME280;49577;49.872;6.190;2023-02-18T14:57:47;100134.77;;;9.47;78.49
63447;BME280;49577;49.872;6.190;2023-02-18T15:00:15;100131.25;;;9.44;78.47
63447;BME280;49577;49.872;6.190;2023-02-18T15:02:41;100133.00;;;9.40;78.58
63447;BME280;49577;49.872;6.190;2023-02-18T15:07:37;100134.48;;;9.42;78.87
63447;BME280;49577;49.872;6.190;2023-02-18T15:10:03;100137.13;;;9.41;79.13
63447;BME280;49577;49.872;6.190;2023-02-18T15:12:28;100144.53;;;9.43;79.39
63447;BME280;49577;49.872;6.190;2023-02-18T15:14:53;100144.39;;;9.46;79.52
63447;BME280;49577;49.872;6.190;2023-02-18T15:17:24;100145.27;;;9.45;79.68
63447;BME280;49577;49.872;6.190;2023-02-18T15:19:56;100150.88;;;9.45;79.95
63447;BME280;49577;49.872;6.190;2023-02-18T15:22:26;100143.04;;;9.45;80.10
63447;BME280;49577;49.872;6.190;2023-02-18T15:24:55;100141.16;;;9.44;80.42
63447;BME280;49577;49.872;6.190;2023-02-18T15:27:21;100144.02;;;9.43;80.67
63447;BME280;49577;49.872;6.190;2023-02-18T15:29:50;100139.88;;;9.38;80.79
63447;BME280;49577;49.872;6.190;2023-02-18T15:34:42;100137.16;;;9.33;81.29
63447;BME280;49577;49.872;6.190;2023-02-18T15:37:09;100141.08;;;9.31;81.55
63447;BME280;49577;49.872;6.190;2023-02-18T15:39:35;100140.70;;;9.28;81.89